No particular awareness of the weather is required.    There are no Weather-warnings


Meteo18 Weather Cam more information Meteo18 Weather Cam


Thunder radar more information blitzortung!


Rain radar more information rain snow radar


Visit our other weather sites:

Template documentation
and downloads

And another site



Weather Underground History page Text

Daily Summary for January 10, 2017 Units:  English    Metric   Both
« Previous Day
Next Day »
Daily Weekly Monthly Yearly Custom
  High: Low: Average:
Temperature: TemperatureC °F 3.6 °F 5.1 °F
Dew Point: DewpointC °F 3.0 °F 4.3 °F
Humidity: Humidity % 88 % 94 %
Wind Speed: WindSpeedKMH mph 0.0 mph 5.4 mph
Wind Gust: WindSpeedGustKMH mph - -
Wind:- - West
Pressure: PressurehPa in 1011.7 in -
Precipitation: 5.6 in    
Historical Graphs
 
 
Tabular Data for January 10, 2017
Time Temperature Dew Point Pressure Wind Wind Speed Wind Gust Humidity Rainfall Rate (Hourly)
TemperatureC °F DewpointC °F PressurehPa in Calm     Humidity % HourlyPrecipMM in
00:02 5.5 °F 5.2 °F 1018.2 in SW 3.2 mph 16.1 mph 98 % 0.5 in
00:12 5.6 °F 5.3 °F 1017.8 in WSW 11.3 mph 16.1 mph 98 % 0.5 in
00:17 5.6 °F 5.3 °F 1017.8 in WSW 9.7 mph 16.1 mph 98 % 0.8 in
00:22 5.6 °F 5.3 °F 1017.8 in SW 11.3 mph 16.1 mph 98 % 0.5 in
00:27 5.6 °F 5.3 °F 1017.8 in SW 11.3 mph 17.7 mph 98 % 0.5 in
00:32 5.6 °F 5.3 °F 1017.5 in SW 9.7 mph 17.7 mph 98 % 0.5 in
00:42 5.6 °F 5.3 °F 1017.2 in WSW 12.9 mph 16.1 mph 98 % 0.5 in
00:47 5.6 °F 5.3 °F 1017.2 in SSW 9.7 mph 16.1 mph 98 % 0.5 in
00:52 5.6 °F 5.3 °F 1016.8 in SW 12.9 mph 16.1 mph 98 % 1.0 in
00:57 5.7 °F 5.4 °F 1016.8 in SW 12.9 mph 16.1 mph 98 % 1.0 in
01:02 5.6 °F 5.3 °F 1016.8 in SSW 9.7 mph 16.1 mph 98 % 0.8 in
01:07 5.6 °F 5.3 °F 1016.5 in SSW 11.3 mph 17.7 mph 98 % 1.0 in
01:12 5.6 °F 5.3 °F 1016.5 in SW 12.9 mph 17.7 mph 98 % 1.0 in
01:17 5.6 °F 5.3 °F 1016.5 in SSW 17.7 mph 20.9 mph 98 % 0.8 in
01:22 5.7 °F 5.4 °F 1016.1 in SSW 11.3 mph 20.9 mph 98 % 0.8 in
01:27 5.7 °F 5.4 °F 1016.1 in SW 9.7 mph 20.9 mph 98 % 1.0 in
01:32 5.7 °F 5.4 °F 1016.1 in WSW 11.3 mph 20.9 mph 98 % 0.8 in
01:37 5.7 °F 5.4 °F 1015.8 in SSW 9.7 mph 20.9 mph 98 % 0.8 in
01:42 5.7 °F 5.4 °F 1015.8 in SW 14.5 mph 19.3 mph 98 % 1.0 in
01:47 5.8 °F 5.5 °F 1015.5 in SW 16.1 mph 22.5 mph 98 % 0.8 in
01:52 5.8 °F 5.5 °F 1015.5 in SW 8.0 mph 22.5 mph 98 % 0.5 in
01:57 5.8 °F 5.5 °F 1015.1 in SW 9.7 mph 22.5 mph 98 % 0.5 in
02:02 5.8 °F 5.5 °F 1015.1 in SW 12.9 mph 20.9 mph 98 % 0.5 in
02:07 5.8 °F 5.5 °F 1015.1 in SSW 6.4 mph 20.9 mph 98 % 0.5 in
02:12 5.8 °F 5.5 °F 1014.8 in SW 14.5 mph 19.3 mph 98 % 0.5 in
02:17 5.9 °F 5.6 °F 1014.8 in SSW 9.7 mph 19.3 mph 98 % 0.5 in
02:22 5.9 °F 5.6 °F 1014.4 in SW 9.7 mph 19.3 mph 98 % 0.5 in
02:27 5.9 °F 5.6 °F 1014.4 in SW 12.9 mph 19.3 mph 98 % 0.5 in
02:32 5.8 °F 5.5 °F 1014.4 in SSW 14.5 mph 19.3 mph 98 % 0.5 in
02:37 5.8 °F 5.5 °F 1014.4 in SW 14.5 mph 17.7 mph 98 % 0.8 in
02:42 5.8 °F 5.5 °F 1014.1 in SW 11.3 mph 17.7 mph 98 % 0.5 in
02:47 5.7 °F 5.4 °F 1014.1 in SW 11.3 mph 17.7 mph 98 % 0.5 in
02:52 5.7 °F 5.4 °F 1013.8 in SSW 11.3 mph 20.9 mph 98 % 0.8 in
02:57 5.7 °F 5.4 °F 1013.8 in SW 6.4 mph 20.9 mph 98 % 0.8 in
03:02 5.7 °F 5.4 °F 1013.8 in SW 8.0 mph 19.3 mph 98 % 0.8 in
03:07 5.7 °F 5.4 °F 1013.8 in SW 14.5 mph 17.7 mph 98 % 1.0 in
03:12 5.7 °F 5.4 °F 1013.8 in SSW 4.8 mph 17.7 mph 98 % 1.3 in
03:17 5.8 °F 5.5 °F 1013.4 in SW 9.7 mph 17.7 mph 98 % 1.5 in
03:22 5.9 °F 5.6 °F 1013.4 in SSW 8.0 mph 17.7 mph 98 % 1.5 in
03:27 5.9 °F 5.6 °F 1013.1 in SW 11.3 mph 19.3 mph 98 % 1.5 in
03:32 5.9 °F 5.6 °F 1013.1 in SSW 8.0 mph 19.3 mph 98 % 1.3 in
03:37 5.9 °F 5.6 °F 1013.1 in SSW 6.4 mph 17.7 mph 98 % 1.5 in
03:42 5.9 °F 5.6 °F 1013.1 in SW 9.7 mph 16.1 mph 98 % 1.5 in
03:47 5.9 °F 5.6 °F 1012.8 in West 8.0 mph 16.1 mph 98 % 1.3 in
03:52 5.9 °F 5.6 °F 1012.8 in SW 3.2 mph 16.1 mph 98 % 1.3 in
03:57 6.0 °F 5.7 °F 1012.8 in SW 3.2 mph 16.1 mph 98 % 1.3 in
04:07 6.0 °F 5.7 °F 1012.8 in SSW 3.2 mph 11.3 mph 98 % 0.8 in
04:12 6.1 °F 5.8 °F 1012.4 in SW 3.2 mph 11.3 mph 98 % 0.8 in
04:17 6.1 °F 5.8 °F 1012.4 in SW 3.2 mph 11.3 mph 98 % 0.8 in
04:22 6.1 °F 5.8 °F 1012.4 in WSW 6.4 mph 9.7 mph 98 % 0.8 in
04:27 6.2 °F 5.9 °F 1012.4 in WSW 3.2 mph 8.0 mph 98 % 0.5 in
04:32 6.2 °F 5.9 °F 1012.4 in WSW 3.2 mph 8.0 mph 98 % 0.5 in
04:37 6.2 °F 5.9 °F 1012.4 in West 4.8 mph 8.0 mph 98 % 0.5 in
04:47 6.3 °F 6.0 °F 1012.4 in WSW 6.4 mph 9.7 mph 98 % 0.8 in
04:52 6.3 °F 6.0 °F 1012.8 in NNW 9.7 mph 19.3 mph 98 % 1.0 in
04:57 5.9 °F 5.5 °F 1012.8 in NNW 9.7 mph 29.0 mph 97 % 1.0 in
05:02 5.7 °F 5.3 °F 1012.8 in WNW 4.8 mph 29.0 mph 97 % 1.0 in
05:12 5.4 °F 4.8 °F 1012.4 in NW 9.7 mph 22.5 mph 96 % 0.8 in
05:17 5.3 °F 4.7 °F 1012.4 in NNW 6.4 mph 22.5 mph 96 % 0.8 in
05:22 5.3 °F 4.7 °F 1012.4 in NW 3.2 mph 17.7 mph 96 % 0.8 in
05:27 5.2 °F 4.6 °F 1012.1 in NNW 6.4 mph 12.9 mph 96 % 0.8 in
05:32 5.2 °F 4.6 °F 1012.1 in North 3.2 mph 12.9 mph 96 % 0.8 in
05:37 5.1 °F 4.5 °F 1012.1 in Calm   9.7 mph 96 % 0.5 in
05:42 5.1 °F 4.5 °F 1012.1 in NNW 1.6 mph 8.0 mph 96 % 0.5 in
05:47 5.1 °F 4.5 °F 1011.7 in Calm   4.8 mph 96 % 0.5 in
05:52 5.0 °F 4.4 °F 1011.7 in NNW 1.6 mph 4.8 mph 96 % 0.0 in
05:57 5.0 °F 4.4 °F 1011.7 in NNW 1.6 mph 4.8 mph 96 % 0.0 in
06:02 4.9 °F 4.3 °F 1012.1 in North 4.8 mph 4.8 mph 96 % 0.0 in
06:07 4.9 °F 4.3 °F 1012.1 in NNW 1.6 mph 8.0 mph 96 % 0.0 in
06:12 4.8 °F 4.2 °F 1012.1 in NNE 1.6 mph 8.0 mph 96 % 0.0 in
06:17 4.8 °F 4.2 °F 1012.1 in North 1.6 mph 8.0 mph 96 % 0.0 in
06:22 4.8 °F 4.2 °F 1012.1 in NW 3.2 mph 8.0 mph 96 % 0.0 in
06:27 4.7 °F 4.1 °F 1012.1 in NNW 3.2 mph 8.0 mph 96 % 0.0 in
06:32 4.6 °F 4.0 °F 1012.1 in NNW 3.2 mph 8.0 mph 96 % 0.0 in
06:37 4.4 °F 3.8 °F 1012.1 in North 1.6 mph 8.0 mph 96 % 0.0 in
06:42 4.4 °F 3.8 °F 1012.1 in North 1.6 mph 8.0 mph 96 % 0.0 in
06:47 4.4 °F 3.8 °F 1012.1 in NW 1.6 mph 4.8 mph 96 % 0.0 in
06:52 4.3 °F 3.7 °F 1012.4 in NNW 3.2 mph 3.2 mph 96 % 0.0 in
06:57 4.2 °F 3.6 °F 1012.4 in North 1.6 mph 3.2 mph 96 % 0.0 in
07:02 4.2 °F 3.6 °F 1012.4 in NNW 1.6 mph 3.2 mph 96 % 0.0 in
07:07 4.2 °F 3.6 °F 1012.4 in Calm   4.8 mph 96 % 0.0 in
07:12 4.2 °F 3.6 °F 1012.4 in NW 1.6 mph 4.8 mph 96 % 0.0 in
07:17 4.2 °F 3.6 °F 1012.8 in NW 1.6 mph 3.2 mph 96 % 0.0 in
07:22 4.2 °F 3.6 °F 1012.8 in NW 1.6 mph 6.4 mph 96 % 0.0 in
07:27 4.2 °F 3.6 °F 1012.8 in Calm   6.4 mph 96 % 0.0 in
07:32 4.1 °F 3.5 °F 1012.8 in NNW 1.6 mph 6.4 mph 96 % 0.0 in
07:37 4.1 °F 3.7 °F 1012.4 in WNW 1.6 mph 6.4 mph 97 % 0.0 in
07:42 4.0 °F 3.6 °F 1012.8 in NW 3.2 mph 6.4 mph 97 % 0.0 in
07:47 4.0 °F 3.6 °F 1012.8 in NW 3.2 mph 6.4 mph 97 % 0.0 in
07:52 4.1 °F 3.7 °F 1012.8 in NW 3.2 mph 6.4 mph 97 % 0.0 in
07:57 4.0 °F 3.6 °F 1012.8 in WNW 4.8 mph 6.4 mph 97 % 0.0 in
08:02 4.0 °F 3.6 °F 1012.8 in WNW 1.6 mph 6.4 mph 97 % 0.0 in
08:07 4.0 °F 3.6 °F 1012.8 in WNW 4.8 mph 9.7 mph 97 % 0.0 in
08:12 4.1 °F 3.7 °F 1012.4 in NW 4.8 mph 9.7 mph 97 % 0.0 in
08:17 4.1 °F 3.7 °F 1012.8 in WNW 4.8 mph 9.7 mph 97 % 0.0 in
08:22 4.1 °F 3.7 °F 1012.8 in WNW 8.0 mph 11.3 mph 97 % 0.0 in
08:27 4.1 °F 3.7 °F 1012.4 in NW 3.2 mph 11.3 mph 97 % 0.0 in
08:32 4.2 °F 3.8 °F 1012.8 in WNW 3.2 mph 11.3 mph 97 % 0.0 in
08:37 4.2 °F 3.8 °F 1012.8 in WNW 1.6 mph 12.9 mph 97 % 0.0 in
08:42 4.2 °F 3.6 °F 1012.8 in WNW 1.6 mph 12.9 mph 96 % 0.0 in
08:52 4.1 °F 3.5 °F 1012.8 in Calm   6.4 mph 96 % 0.0 in
08:57 4.1 °F 3.5 °F 1012.8 in Calm   6.4 mph 96 % 0.0 in
09:02 3.9 °F 3.3 °F 1012.8 in West 1.6 mph 6.4 mph 96 % 0.0 in
09:07 3.9 °F 3.3 °F 1012.4 in Calm   3.2 mph 96 % 0.0 in
09:12 4.0 °F 3.4 °F 1012.8 in WNW 1.6 mph 3.2 mph 96 % 0.0 in
09:17 4.2 °F 3.8 °F 1012.8 in WNW 1.6 mph 4.8 mph 97 % 0.0 in
09:22 4.4 °F 4.0 °F 1012.8 in WNW 3.2 mph 4.8 mph 97 % 0.0 in
09:27 4.6 °F 4.0 °F 1012.8 in NW 4.8 mph 11.3 mph 96 % 0.0 in
09:32 4.7 °F 4.1 °F 1012.8 in NW 3.2 mph 11.3 mph 96 % 0.0 in
09:37 4.8 °F 4.2 °F 1012.8 in WNW 6.4 mph 11.3 mph 96 % 0.0 in
09:42 5.0 °F 4.3 °F 1012.8 in West 1.6 mph 14.5 mph 95 % 0.0 in
09:52 5.1 °F 4.4 °F 1012.8 in WNW 3.2 mph 14.5 mph 95 % 0.0 in
09:57 5.1 °F 4.4 °F 1012.8 in WNW 6.4 mph 14.5 mph 95 % 0.0 in
10:02 5.0 °F 4.3 °F 1012.8 in WNW 6.4 mph 14.5 mph 95 % 0.0 in
10:07 4.9 °F 4.2 °F 1012.8 in WNW 3.2 mph 11.3 mph 95 % 0.0 in
10:12 4.9 °F 4.2 °F 1012.8 in West 3.2 mph 11.3 mph 95 % 0.0 in
10:17 5.0 °F 4.3 °F 1013.1 in WNW 1.6 mph 11.3 mph 95 % 0.0 in
10:22 5.2 °F 4.5 °F 1013.1 in WNW 8.0 mph 11.3 mph 95 % 0.0 in
10:32 5.6 °F 4.7 °F 1013.4 in NW 6.4 mph 12.9 mph 94 % 0.0 in
10:37 5.7 °F 4.8 °F 1013.4 in WNW 9.7 mph 14.5 mph 94 % 0.0 in
10:42 5.7 °F 4.7 °F 1013.4 in NNW 9.7 mph 14.5 mph 93 % 0.0 in
10:47 5.6 °F 4.6 °F 1013.8 in NW 6.4 mph 19.3 mph 93 % 0.0 in
10:52 5.5 °F 4.6 °F 1013.8 in NW 6.4 mph 19.3 mph 94 % 0.0 in
10:57 5.5 °F 4.6 °F 1013.4 in WNW 4.8 mph 17.7 mph 94 % 0.0 in
11:02 5.5 °F 4.6 °F 1013.4 in WNW 3.2 mph 16.1 mph 94 % 0.0 in
11:07 5.5 °F 4.6 °F 1013.4 in West 4.8 mph 12.9 mph 94 % 0.0 in
11:17 5.4 °F 4.5 °F 1013.4 in NW 4.8 mph 14.5 mph 94 % 0.0 in
11:22 5.4 °F 4.5 °F 1013.8 in NNW 4.8 mph 14.5 mph 94 % 0.0 in
11:27 5.4 °F 4.5 °F 1013.8 in WNW 14.5 mph 17.7 mph 94 % 0.0 in
11:32 5.3 °F 4.4 °F 1013.8 in WNW 9.7 mph 19.3 mph 94 % 0.3 in
11:37 5.3 °F 4.4 °F 1013.8 in WNW 1.6 mph 19.3 mph 94 % 0.3 in
11:47 5.3 °F 4.4 °F 1013.4 in NW 8.0 mph 12.9 mph 94 % 0.3 in
11:52 5.3 °F 4.4 °F 1013.4 in WNW 8.0 mph 14.5 mph 94 % 0.3 in
12:02 5.4 °F 4.5 °F 1013.4 in NW 4.8 mph 12.9 mph 94 % 0.3 in
12:07 5.5 °F 4.6 °F 1013.4 in WNW 9.7 mph 12.9 mph 94 % 0.3 in
12:17 5.7 °F 4.7 °F 1013.4 in WNW 12.9 mph 12.9 mph 93 % 0.3 in
12:22 5.7 °F 4.5 °F 1013.4 in WNW 6.4 mph 19.3 mph 92 % 0.3 in
12:27 5.8 °F 4.6 °F 1013.1 in WNW 1.6 mph 19.3 mph 92 % 0.3 in
12:37 5.8 °F 4.3 °F 1013.1 in NW 8.0 mph 16.1 mph 90 % 0.0 in
12:42 5.8 °F 4.4 °F 1012.8 in West 11.3 mph 16.1 mph 91 % 0.0 in
12:47 5.9 °F 4.4 °F 1012.8 in WNW 11.3 mph 19.3 mph 90 % 0.0 in
12:52 5.9 °F 4.4 °F 1012.8 in WNW 9.7 mph 19.3 mph 90 % 0.0 in
12:57 5.9 °F 4.4 °F 1012.8 in WNW 6.4 mph 19.3 mph 90 % 0.0 in
13:02 5.9 °F 4.4 °F 1012.8 in NW 6.4 mph 17.7 mph 90 % 0.0 in
13:07 5.9 °F 4.4 °F 1012.8 in WSW 1.6 mph 17.7 mph 90 % 0.0 in
13:17 6.0 °F 4.3 °F 1012.8 in WNW 4.8 mph 19.3 mph 89 % 0.0 in
13:22 5.8 °F 4.1 °F 1012.8 in NNE 11.3 mph 19.3 mph 89 % 0.0 in
13:27 5.7 °F 4.2 °F 1012.8 in NW 12.9 mph 19.3 mph 90 % 0.3 in
13:32 5.0 °F 3.5 °F 1012.8 in WNW 12.9 mph 24.1 mph 90 % 0.5 in
13:37 4.7 °F 3.4 °F 1012.8 in NW 3.2 mph 24.1 mph 91 % 0.8 in
13:42 4.8 °F 3.6 °F 1012.8 in NW 6.4 mph 24.1 mph 92 % 0.8 in
13:52 5.2 °F 4.3 °F 1012.8 in NNW 11.3 mph 12.9 mph 94 % 0.8 in
14:02 5.4 °F 4.2 °F 1012.8 in NW 8.0 mph 20.9 mph 92 % 0.8 in
14:07 5.5 °F 4.3 °F 1012.8 in NNW 4.8 mph 22.5 mph 92 % 0.8 in
14:12 5.5 °F 4.3 °F 1012.8 in North 1.6 mph 22.5 mph 92 % 0.8 in
14:17 5.5 °F 4.3 °F 1012.8 in NW 12.9 mph 22.5 mph 92 % 0.8 in
14:22 5.5 °F 4.3 °F 1012.8 in NW 4.8 mph 25.7 mph 92 % 0.8 in
14:27 5.5 °F 4.3 °F 1012.8 in WNW 11.3 mph 25.7 mph 92 % 0.5 in
14:32 5.5 °F 4.3 °F 1012.8 in WNW 8.0 mph 25.7 mph 92 % 0.3 in
14:37 5.6 °F 4.4 °F 1012.8 in WNW 8.0 mph 17.7 mph 92 % 0.0 in
14:42 5.7 °F 4.3 °F 1012.8 in WNW 6.4 mph 20.9 mph 91 % 0.0 in
14:47 5.7 °F 4.3 °F 1012.8 in WNW 3.2 mph 20.9 mph 91 % 0.0 in
14:52 5.7 °F 4.2 °F 1012.8 in WNW 6.4 mph 20.9 mph 90 % 0.0 in
14:57 5.7 °F 4.2 °F 1012.8 in NNW 8.0 mph 17.7 mph 90 % 0.0 in
15:02 5.8 °F 4.1 °F 1012.8 in NNW 9.7 mph 19.3 mph 89 % 0.0 in
15:07 5.8 °F 4.1 °F 1012.8 in WNW 8.0 mph 19.3 mph 89 % 0.0 in
15:12 5.8 °F 4.1 °F 1012.8 in NNW 3.2 mph 19.3 mph 89 % 0.0 in
15:17 5.9 °F 4.2 °F 1013.1 in NNW 9.7 mph 17.7 mph 89 % 0.0 in
15:22 6.0 °F 4.2 °F 1013.1 in North 4.8 mph 17.7 mph 88 % 0.0 in
15:27 6.1 °F 4.3 °F 1013.1 in NW 14.5 mph 17.7 mph 88 % 0.0 in
15:32 6.2 °F 4.4 °F 1013.1 in NNW 11.3 mph 19.3 mph 88 % 0.0 in
15:37 6.1 °F 4.3 °F 1013.1 in NW 6.4 mph 19.3 mph 88 % 0.0 in
15:42 5.9 °F 4.1 °F 1013.1 in NNW 8.0 mph 19.3 mph 88 % 0.0 in
15:47 5.9 °F 4.1 °F 1013.1 in NNW 4.8 mph 17.7 mph 88 % 0.0 in
15:52 5.9 °F 4.1 °F 1013.1 in NW 6.4 mph 20.9 mph 88 % 0.0 in
15:57 6.1 °F 4.4 °F 1013.1 in NNW 8.0 mph 20.9 mph 89 % 0.0 in
16:02 6.1 °F 4.3 °F 1013.4 in WNW 3.2 mph 19.3 mph 88 % 0.0 in
16:07 6.2 °F 4.4 °F 1013.4 in NW 6.4 mph 19.3 mph 88 % 0.0 in
16:12 6.2 °F 4.4 °F 1013.4 in NW 12.9 mph 19.3 mph 88 % 0.0 in
16:17 6.2 °F 4.4 °F 1013.4 in WNW 8.0 mph 17.7 mph 88 % 0.0 in
16:22 6.2 °F 4.4 °F 1013.4 in NW 4.8 mph 17.7 mph 88 % 0.0 in
16:27 6.1 °F 4.3 °F 1013.4 in NW 4.8 mph 17.7 mph 88 % 0.0 in
16:32 6.1 °F 4.3 °F 1013.8 in WNW 1.6 mph 17.7 mph 88 % 0.0 in
16:37 6.1 °F 4.3 °F 1013.8 in North 8.0 mph 12.9 mph 88 % 0.0 in
16:42 5.9 °F 4.1 °F 1013.8 in NW 8.0 mph 12.9 mph 88 % 0.0 in
16:52 5.7 °F 4.0 °F 1014.1 in North 8.0 mph 9.7 mph 89 % 0.0 in
17:02 5.5 °F 3.8 °F 1014.4 in NW 3.2 mph 11.3 mph 89 % 0.0 in
17:07 5.4 °F 3.9 °F 1014.4 in NW 1.6 mph 11.3 mph 90 % 0.0 in
17:12 5.3 °F 3.8 °F 1014.4 in Calm   8.0 mph 90 % 0.0 in
17:52 4.8 °F 3.5 °F 1015.1 in Calm   4.8 mph 91 % 0.0 in
18:02 4.7 °F 3.4 °F 1015.1 in WNW 6.4 mph 6.4 mph 91 % 0.0 in
18:17 4.7 °F 3.5 °F 1015.5 in WNW 3.2 mph 6.4 mph 92 % 0.0 in
18:27 4.7 °F 3.5 °F 1015.5 in West 3.2 mph 6.4 mph 92 % 0.0 in
18:32 4.7 °F 3.5 °F 1015.5 in WNW 4.8 mph 6.4 mph 92 % 0.0 in
18:42 4.6 °F 3.4 °F 1015.5 in West 1.6 mph 6.4 mph 92 % 0.0 in
18:52 4.4 °F 3.2 °F 1015.5 in WNW 4.8 mph 6.4 mph 92 % 0.0 in
19:02 4.4 °F 3.2 °F 1015.5 in WNW 6.4 mph 8.0 mph 92 % 0.0 in
19:12 4.3 °F 3.3 °F 1015.8 in WNW 6.4 mph 9.7 mph 93 % 0.0 in
19:22 4.3 °F 3.4 °F 1015.8 in WNW 8.0 mph 8.0 mph 94 % 0.0 in
19:27 4.4 °F 3.4 °F 1015.8 in WNW 3.2 mph 9.7 mph 93 % 0.0 in
19:32 4.4 °F 3.4 °F 1015.8 in WNW 1.6 mph 9.7 mph 93 % 0.0 in
19:42 4.3 °F 3.4 °F 1015.8 in WNW 4.8 mph 4.8 mph 94 % 0.0 in
19:47 4.3 °F 3.4 °F 1015.8 in NW 1.6 mph 4.8 mph 94 % 0.0 in
19:57 4.3 °F 3.4 °F 1015.8 in WNW 3.2 mph 4.8 mph 94 % 0.0 in
20:02 4.2 °F 3.3 °F 1016.1 in WNW 1.6 mph 4.8 mph 94 % 0.0 in
20:07 4.2 °F 3.3 °F 1016.1 in Calm   4.8 mph 94 % 0.0 in
20:17 4.2 °F 3.3 °F 1016.1 in WNW 3.2 mph 4.8 mph 94 % 0.0 in
20:27 4.3 °F 3.4 °F 1016.5 in West 1.6 mph 6.4 mph 94 % 0.0 in
20:37 4.4 °F 3.5 °F 1016.5 in WNW 1.6 mph 6.4 mph 94 % 0.0 in
20:42 4.4 °F 3.5 °F 1016.5 in WNW 3.2 mph 4.8 mph 94 % 0.0 in
20:47 4.4 °F 3.5 °F 1016.5 in West 1.6 mph 4.8 mph 94 % 0.0 in
20:52 4.4 °F 3.5 °F 1016.5 in Calm   4.8 mph 94 % 0.0 in
20:57 4.4 °F 3.7 °F 1016.5 in Calm   4.8 mph 95 % 0.0 in
21:02 4.5 °F 3.8 °F 1016.5 in West 1.6 mph 3.2 mph 95 % 0.0 in
21:07 4.6 °F 3.7 °F 1016.5 in West 1.6 mph 3.2 mph 94 % 0.0 in
21:17 4.7 °F 4.0 °F 1016.8 in NW 3.2 mph 4.8 mph 95 % 0.0 in
21:22 4.7 °F 4.0 °F 1016.8 in West 3.2 mph 4.8 mph 95 % 0.0 in
21:27 4.8 °F 4.1 °F 1016.8 in WSW 1.6 mph 4.8 mph 95 % 0.0 in
21:32 4.8 °F 4.1 °F 1016.8 in WNW 3.2 mph 4.8 mph 95 % 0.0 in
21:37 4.8 °F 4.1 °F 1016.8 in WNW 1.6 mph 6.4 mph 95 % 0.0 in
21:47 4.8 °F 4.1 °F 1016.8 in WNW 1.6 mph 6.4 mph 95 % 0.0 in
21:52 4.8 °F 4.1 °F 1016.8 in WNW 3.2 mph 6.4 mph 95 % 0.0 in
21:57 4.8 °F 4.1 °F 1016.5 in WNW 1.6 mph 6.4 mph 95 % 0.0 in
22:02 4.8 °F 4.1 °F 1016.8 in Calm   6.4 mph 95 % 0.0 in
22:07 4.7 °F 4.0 °F 1016.5 in Calm   4.8 mph 95 % 0.0 in
22:12 4.7 °F 4.0 °F 1016.8 in Calm   1.6 mph 95 % 0.0 in
22:17 4.7 °F 4.0 °F 1016.8 in Calm     95 % 0.0 in
22:22 4.7 °F 4.0 °F 1016.8 in Calm     95 % 0.0 in
22:32 4.6 °F 3.9 °F 1017.2 in Calm   1.6 mph 95 % 0.0 in
22:37 4.6 °F 3.9 °F 1017.2 in Calm   1.6 mph 95 % 0.0 in
22:42 4.6 °F 3.9 °F 1016.8 in Calm   3.2 mph 95 % 0.0 in
22:47 4.6 °F 3.9 °F 1017.2 in Calm   3.2 mph 95 % 0.0 in
22:52 4.4 °F 3.7 °F 1017.2 in Calm   3.2 mph 95 % 0.0 in
23:02 4.1 °F 3.4 °F 1017.2 in Calm   1.6 mph 95 % 0.0 in
23:12 3.9 °F 3.2 °F 1017.2 in Calm   3.2 mph 95 % 0.0 in
23:17 3.7 °F 3.1 °F 1017.2 in Calm   3.2 mph 96 % 0.0 in
23:27 3.6 °F 3.0 °F 1017.2 in Calm   3.2 mph 96 % 0.0 in
23:32 3.6 °F 3.2 °F 1017.2 in West 3.2 mph 4.8 mph 97 % 0.0 in
23:42 3.8 °F 3.4 °F 1017.2 in NW 3.2 mph 6.4 mph 97 % 0.0 in
23:47 3.8 °F 3.2 °F 1017.2 in Calm   6.4 mph 96 % 0.0 in
23:52 3.8 °F 3.2 °F 1017.5 in WNW 1.6 mph 6.4 mph 96 % 0.0 in
23:57 3.8 °F 3.2 °F 1017.5 in WNW 1.6 mph 4.8 mph 96 % 0.0 in
Meteo18
Compliments of Weather Underground - 4 mb

Script developed by  Jim McMurry - jmcmurry@mwt.net Adapted for the template by  Wim van der Kuil - Leuven-Template.eu

You find our weather info also at:

European Weather Network

Weather Underground

Equipment we use:

Weather-station
Davis Vue

Weather-program
Meteobridge

Weather-server
Raspberry PI 2 B+

Provider
1 and 1

Davis Vue

Meteobridge

Raspberry PI 2 B+

1 and 1